createdAt,value
2022-11-20T00:01:24.291Z,99.90
2022-11-20T00:03:56.089Z,99.90
2022-11-20T00:11:21.953Z,99.90
2022-11-20T00:13:51.578Z,99.90
2022-11-20T00:16:21.581Z,99.90
2022-11-20T00:18:49.506Z,99.90
2022-11-20T00:21:25.578Z,99.90
2022-11-20T00:23:55.477Z,99.90
2022-11-20T00:26:25.625Z,99.90
2022-11-20T00:28:55.145Z,99.90
2022-11-20T00:31:22.849Z,99.90
2022-11-20T00:36:20.369Z,99.90
2022-11-20T00:38:48.238Z,99.90
2022-11-20T00:41:16.896Z,99.90
2022-11-20T00:43:44.954Z,99.90
2022-11-20T00:46:16.548Z,99.90
2022-11-20T00:51:15.249Z,99.90
2022-11-20T00:53:42.843Z,99.90
2022-11-20T00:56:13.713Z,99.90
2022-11-20T00:58:44.014Z,99.90
2022-11-20T01:01:15.722Z,99.90
2022-11-20T01:03:45.446Z,99.90
2022-11-20T01:06:33.495Z,99.90
2022-11-20T01:09:04.256Z,99.90
2022-11-20T01:11:37.748Z,99.90
2022-11-20T01:14:08.983Z,99.90
2022-11-20T01:16:38.874Z,99.90
2022-11-20T01:19:09.630Z,99.90
2022-11-20T01:21:38.915Z,99.90
2022-11-20T01:24:11.987Z,99.90
2022-11-20T01:26:42.273Z,99.90
2022-11-20T01:29:16.333Z,99.90
2022-11-20T01:31:44.742Z,99.90
2022-11-20T01:34:14.802Z,99.90
2022-11-20T01:36:44.159Z,99.90
2022-11-20T01:39:20.681Z,99.90
2022-11-20T01:44:53.982Z,99.90
2022-11-20T01:47:41.763Z,99.90
2022-11-20T01:50:36.165Z,99.90
2022-11-20T01:53:07.844Z,99.90
2022-11-20T01:55:40.377Z,99.90
2022-11-20T01:58:07.959Z,99.90
2022-11-20T02:00:35.689Z,99.90
2022-11-20T02:03:08.287Z,99.90
2022-11-20T02:05:43.537Z,99.90
2022-11-20T02:08:11.193Z,99.90
2022-11-20T02:10:38.668Z,99.90
2022-11-20T02:13:24.973Z,99.90
2022-11-20T02:18:21.581Z,99.90
2022-11-20T02:23:22.288Z,99.90
2022-11-20T02:25:52.339Z,99.90
2022-11-20T02:28:21.600Z,99.90
2022-11-20T02:30:49.152Z,99.90
2022-11-20T02:33:16.904Z,99.90
2022-11-20T02:35:48.728Z,99.90
2022-11-20T02:38:16.777Z,99.90
2022-11-20T02:45:49.932Z,99.90
2022-11-20T02:50:45.364Z,99.90
2022-11-20T02:53:13.052Z,99.90
2022-11-20T02:58:08.164Z,99.90
2022-11-20T03:00:36.494Z,99.90
2022-11-20T03:03:04.014Z,99.90
2022-11-20T03:05:31.530Z,99.90
2022-11-20T03:07:59.053Z,99.90
2022-11-20T03:10:26.504Z,99.90
2022-11-20T03:12:57.176Z,99.90
2022-11-20T03:15:25.303Z,99.90
2022-11-20T03:17:56.339Z,99.90
2022-11-20T03:20:24.178Z,99.90
2022-11-20T03:22:52.112Z,99.90
2022-11-20T03:27:47.860Z,99.90
2022-11-20T03:30:16.309Z,99.90
2022-11-20T03:32:44.024Z,99.90
2022-11-20T03:35:11.669Z,99.90
2022-11-20T03:40:07.572Z,99.90
2022-11-20T03:42:46.819Z,99.90
2022-11-20T03:45:16.632Z,99.90
2022-11-20T03:47:44.411Z,99.90
2022-11-20T03:50:14.412Z,99.90
2022-11-20T03:52:42.282Z,99.90
2022-11-20T03:57:37.538Z,99.90
2022-11-20T04:00:06.621Z,99.90
2022-11-20T04:02:34.288Z,99.90
2022-11-20T04:05:02.056Z,99.90
2022-11-20T04:07:29.584Z,99.90
2022-11-20T04:09:57.334Z,99.90
2022-11-20T04:17:20.007Z,99.90
2022-11-20T04:19:47.831Z,99.90
2022-11-20T04:22:16.198Z,99.90
2022-11-20T04:27:11.757Z,99.90
2022-11-20T04:29:39.335Z,99.90
2022-11-20T04:34:37.170Z,99.90
2022-11-20T04:37:05.007Z,99.90
2022-11-20T04:39:32.561Z,99.90
2022-11-20T04:42:18.952Z,99.90
2022-11-20T04:49:41.649Z,99.90
2022-11-20T04:52:09.140Z,99.90
2022-11-20T04:54:36.879Z,99.90
2022-11-20T04:57:04.405Z,99.90
2022-11-20T04:59:32.775Z,99.90
2022-11-20T05:02:00.038Z,99.90
2022-11-20T05:04:27.679Z,99.90
2022-11-20T05:06:55.035Z,99.90
2022-11-20T05:11:51.715Z,99.90
2022-11-20T05:16:47.473Z,99.90
2022-11-20T05:24:11.332Z,99.90
2022-11-20T05:26:39.183Z,99.90
2022-11-20T05:29:06.982Z,99.90
2022-11-20T05:31:34.532Z,99.90
2022-11-20T05:34:01.864Z,99.90
2022-11-20T05:36:29.540Z,99.90
2022-11-20T05:41:29.905Z,99.90
2022-11-20T05:43:58.800Z,99.90
2022-11-20T05:46:28.573Z,99.90
2022-11-20T05:48:57.100Z,99.90
2022-11-20T05:51:24.691Z,99.90
2022-11-20T05:53:52.484Z,99.90
2022-11-20T05:56:22.304Z,99.90
2022-11-20T05:58:50.644Z,99.90
2022-11-20T06:01:23.828Z,99.90
2022-11-20T06:03:52.195Z,99.90
2022-11-20T06:08:48.204Z,99.90
2022-11-20T06:11:17.144Z,99.90
2022-11-20T06:13:44.771Z,99.90
2022-11-20T06:16:14.487Z,99.90
2022-11-20T06:18:42.041Z,99.90
2022-11-20T06:21:15.476Z,99.90
2022-11-20T06:23:44.289Z,99.90
2022-11-20T06:26:25.339Z,99.90
2022-11-20T06:28:54.022Z,99.90
2022-11-20T06:31:24.001Z,99.90
2022-11-20T06:36:21.536Z,99.90
2022-11-20T06:38:49.213Z,99.90
2022-11-20T06:41:19.346Z,99.90
2022-11-20T06:43:47.091Z,99.90
2022-11-20T06:46:15.516Z,99.00
2022-11-20T06:53:39.039Z,82.50
2022-11-20T07:01:08.449Z,68.80
2022-11-20T07:03:36.149Z,63.70
2022-11-20T07:06:05.368Z,68.10
2022-11-20T07:08:33.091Z,72.60
2022-11-20T07:11:01.860Z,55.40
2022-11-20T07:13:29.791Z,53.40
2022-11-20T07:16:01.668Z,52.00
2022-11-20T07:18:29.316Z,50.60
2022-11-20T07:20:57.023Z,48.40
2022-11-20T07:28:20.724Z,46.00
2022-11-20T07:30:52.597Z,45.80
2022-11-20T07:33:20.479Z,45.20
2022-11-20T07:35:48.673Z,47.60
2022-11-20T07:38:16.342Z,46.40
2022-11-20T07:43:11.442Z,55.70
2022-11-20T07:48:06.948Z,56.70
2022-11-20T07:50:34.487Z,61.30
2022-11-20T07:53:06.058Z,78.90
2022-11-20T07:55:35.351Z,69.50
2022-11-20T07:58:02.874Z,73.70
2022-11-20T08:00:30.777Z,74.50
2022-11-20T08:02:58.489Z,74.80
2022-11-20T08:05:26.081Z,72.10
2022-11-20T08:07:53.928Z,73.40
2022-11-20T08:10:21.451Z,74.60
2022-11-20T08:13:08.636Z,69.50
2022-11-20T08:15:36.668Z,68.70
2022-11-20T08:20:57.430Z,64.90
2022-11-20T08:23:25.741Z,59.50
2022-11-20T08:25:53.699Z,52.90
2022-11-20T08:30:51.513Z,48.30
2022-11-20T08:33:19.682Z,50.40
2022-11-20T08:35:47.533Z,49.90
2022-11-20T08:38:14.949Z,43.80
2022-11-20T08:41:02.403Z,42.10
2022-11-20T08:43:30.161Z,41.50
2022-11-20T08:45:58.532Z,53.00
2022-11-20T08:48:26.084Z,45.90
2022-11-20T08:50:53.754Z,51.00
2022-11-20T08:53:21.397Z,55.30
2022-11-20T08:55:49.089Z,57.30
2022-11-20T08:58:16.791Z,69.90
2022-11-20T09:00:44.609Z,62.60
2022-11-20T09:03:12.068Z,62.80
2022-11-20T09:05:39.951Z,65.50
2022-11-20T09:08:07.648Z,69.90
2022-11-20T09:10:35.206Z,81.20
2022-11-20T09:13:02.857Z,71.30
2022-11-20T09:15:30.564Z,74.00
2022-11-20T09:18:03.499Z,74.60
2022-11-20T09:23:01.302Z,69.80
2022-11-20T09:25:28.697Z,71.30
2022-11-20T09:27:59.757Z,73.10
2022-11-20T09:30:28.048Z,71.70
2022-11-20T09:32:56.391Z,62.80
2022-11-20T09:35:24.035Z,61.60
2022-11-20T09:40:24.408Z,43.60
2022-11-20T09:43:23.068Z,50.70
2022-11-20T09:46:02.816Z,41.90
2022-11-20T09:48:33.188Z,42.40
2022-11-20T09:51:18.682Z,43.70
2022-11-20T09:54:19.114Z,44.80
2022-11-20T09:56:57.796Z,45.20
2022-11-20T09:59:37.097Z,47.40
2022-11-20T10:02:17.423Z,46.80
2022-11-20T10:05:00.504Z,43.20
2022-11-20T10:07:44.787Z,42.20
2022-11-20T10:10:41.124Z,41.10
2022-11-20T10:13:41.300Z,36.40
2022-11-20T10:16:17.534Z,35.60
2022-11-20T10:21:39.921Z,42.20
2022-11-20T10:24:54.412Z,50.10
2022-11-20T10:27:57.830Z,54.30
2022-11-20T10:33:17.606Z,48.60
2022-11-20T10:36:25.753Z,53.40
2022-11-20T10:39:05.322Z,63.00
2022-11-20T10:41:38.605Z,55.20
2022-11-20T10:44:15.877Z,45.90
2022-11-20T10:49:21.363Z,39.60
2022-11-20T10:52:21.478Z,48.80
2022-11-20T10:54:54.496Z,41.60
2022-11-20T10:57:49.748Z,44.80
2022-11-20T11:00:19.223Z,46.70
2022-11-20T11:02:50.500Z,48.70
2022-11-20T11:10:25.877Z,66.30
2022-11-20T11:12:53.477Z,57.80
2022-11-20T12:14:02.722Z,73.60
2022-11-20T12:16:36.660Z,74.70
2022-11-20T12:19:05.438Z,75.90
2022-11-20T12:21:50.415Z,75.70
2022-11-20T12:24:28.960Z,76.90
2022-11-20T12:27:41.122Z,76.70
2022-11-20T12:33:04.914Z,79.50
2022-11-20T12:35:32.269Z,79.60
2022-11-20T12:38:44.723Z,79.60
2022-11-20T12:42:21.368Z,78.60
2022-11-20T12:45:13.323Z,78.80
2022-11-20T12:50:42.862Z,76.80
2022-11-20T12:54:10.026Z,77.50
2022-11-20T12:57:03.996Z,76.20
2022-11-20T12:59:49.699Z,76.40
2022-11-20T13:02:32.165Z,78.50
2022-11-20T13:05:21.378Z,74.70
2022-11-20T13:07:51.669Z,77.50
2022-11-20T13:10:50.849Z,75.30
2022-11-20T13:13:25.868Z,85.20
2022-11-20T13:16:02.645Z,72.60
2022-11-20T13:18:35.554Z,78.00
2022-11-20T13:21:03.109Z,77.50
2022-11-20T13:28:44.567Z,83.60
2022-11-20T13:31:35.327Z,80.20
2022-11-20T13:34:07.246Z,79.80
2022-11-20T13:36:36.167Z,83.70
2022-11-20T13:44:26.003Z,80.40
2022-11-20T13:46:53.732Z,80.30
2022-11-20T13:49:43.838Z,83.30
2022-11-20T13:52:39.821Z,83.80
2022-11-20T13:55:17.751Z,82.10
2022-11-20T13:58:06.273Z,79.50
2022-11-20T14:00:34.309Z,79.60
2022-11-20T14:03:24.966Z,80.10
2022-11-20T14:06:14.825Z,82.40
2022-11-20T14:08:46.887Z,80.70
2022-11-20T14:14:04.177Z,80.30
2022-11-20T14:16:34.850Z,82.90
2022-11-20T14:19:34.147Z,80.30
2022-11-20T14:24:49.930Z,81.20
2022-11-20T14:29:51.475Z,81.70
2022-11-20T14:32:24.448Z,81.80
2022-11-20T14:34:52.683Z,82.10
2022-11-20T14:39:53.328Z,91.20
2022-11-20T14:42:23.772Z,91.00
2022-11-20T14:44:52.826Z,91.60
2022-11-20T14:47:31.717Z,91.40
2022-11-20T14:50:00.168Z,92.00
2022-11-20T14:52:29.411Z,91.90
2022-11-20T14:55:01.607Z,92.40
2022-11-20T14:57:37.006Z,93.20
2022-11-20T15:02:46.591Z,93.10
2022-11-20T15:07:48.201Z,94.50
2022-11-20T15:10:23.581Z,93.60
2022-11-20T15:17:55.212Z,96.80
2022-11-20T15:20:27.628Z,96.70
2022-11-20T15:22:55.558Z,96.90
2022-11-20T15:27:58.209Z,95.90
2022-11-20T15:30:25.720Z,95.40
2022-11-20T15:32:53.500Z,95.40
2022-11-20T15:35:21.467Z,96.40
2022-11-20T15:37:48.896Z,96.00
2022-11-20T15:40:18.169Z,94.80
2022-11-20T15:43:11.394Z,94.00
2022-11-20T15:45:47.679Z,92.70
2022-11-20T15:51:12.357Z,93.20
2022-11-20T15:56:13.762Z,94.50
2022-11-20T15:58:42.068Z,94.50
2022-11-20T16:01:14.787Z,94.80
2022-11-20T16:06:10.690Z,94.60
2022-11-20T16:08:38.744Z,95.60
2022-11-20T16:11:06.473Z,95.10
2022-11-20T16:13:54.490Z,94.10
2022-11-20T16:16:29.775Z,93.30
2022-11-20T16:18:57.614Z,93.40
2022-11-20T16:21:34.086Z,94.30
2022-11-20T16:26:31.297Z,95.70
2022-11-20T16:29:00.657Z,94.00
2022-11-20T16:31:29.501Z,93.90
2022-11-20T16:33:58.933Z,92.70
2022-11-20T16:36:28.725Z,93.50
2022-11-20T16:41:26.739Z,92.00
2022-11-20T16:43:59.748Z,94.70
2022-11-20T16:46:29.321Z,92.40
2022-11-20T16:49:02.139Z,93.40
2022-11-20T16:51:31.368Z,92.80
2022-11-20T16:54:02.109Z,93.00
2022-11-20T16:56:29.834Z,93.20
2022-11-20T16:58:58.940Z,92.70
2022-11-20T17:04:01.991Z,92.60
2022-11-20T17:06:44.161Z,90.50
2022-11-20T17:14:07.856Z,91.80
2022-11-20T17:16:36.515Z,89.40
2022-11-20T17:21:36.159Z,91.10
2022-11-20T17:24:06.803Z,91.10
2022-11-20T17:26:35.382Z,91.10
2022-11-20T17:29:05.885Z,89.10
2022-11-20T17:34:02.593Z,89.50
2022-11-20T17:43:59.640Z,87.40
2022-11-20T17:46:33.855Z,87.40
2022-11-20T17:49:02.101Z,86.10
2022-11-20T17:51:32.025Z,86.50
2022-11-20T17:54:01.699Z,88.90
2022-11-20T17:56:51.494Z,89.20
2022-11-20T17:59:19.192Z,89.80
2022-11-20T18:04:15.640Z,89.50
2022-11-20T18:06:43.640Z,90.10
2022-11-20T18:09:12.272Z,90.20
2022-11-20T18:11:42.610Z,90.20
2022-11-20T18:14:26.497Z,90.20
2022-11-20T18:16:59.628Z,90.30
2022-11-20T18:19:32.665Z,90.80
2022-11-20T18:22:04.102Z,90.90
2022-11-20T18:24:32.638Z,91.30
2022-11-20T18:27:00.214Z,90.20
2022-11-20T18:29:28.961Z,90.50
2022-11-20T18:34:24.329Z,91.30
2022-11-20T18:36:52.126Z,90.80
2022-11-20T18:39:19.648Z,90.70
2022-11-20T18:44:52.008Z,90.90
2022-11-20T18:47:29.421Z,90.60
2022-11-20T18:52:34.692Z,91.70
2022-11-20T18:55:02.978Z,91.60
2022-11-20T19:00:08.519Z,91.40
2022-11-20T19:05:14.843Z,91.20
2022-11-20T19:07:43.338Z,91.60
2022-11-20T19:10:11.176Z,92.10
2022-11-20T19:15:07.191Z,90.80
2022-11-20T19:20:02.677Z,91.10
2022-11-20T19:22:30.995Z,91.20
2022-11-20T19:24:58.788Z,91.30
2022-11-20T19:27:26.454Z,91.90
2022-11-20T19:29:58.853Z,92.00
2022-11-20T19:37:21.671Z,91.80
2022-11-20T19:39:49.649Z,91.70
2022-11-20T19:42:17.451Z,91.40
2022-11-20T19:44:46.182Z,91.70
2022-11-20T19:49:42.892Z,91.30
2022-11-20T19:52:10.860Z,90.60
2022-11-20T19:54:38.528Z,91.20
2022-11-20T19:57:08.778Z,91.20
2022-11-20T19:59:36.411Z,91.50
2022-11-20T20:02:04.143Z,91.00
2022-11-20T20:04:31.757Z,90.40
2022-11-20T20:09:27.733Z,90.90
2022-11-20T20:11:55.376Z,90.20
2022-11-20T20:14:24.203Z,88.70
2022-11-20T20:16:51.492Z,87.70
2022-11-20T20:19:19.781Z,89.10
2022-11-20T20:24:17.448Z,85.90
2022-11-20T20:26:45.094Z,87.60
2022-11-20T20:29:15.986Z,87.90
2022-11-20T20:31:43.530Z,87.80
2022-11-20T20:34:11.470Z,87.50
2022-11-20T20:41:34.739Z,88.00
2022-11-20T20:46:51.290Z,88.70
2022-11-20T20:51:46.608Z,90.80
2022-11-20T20:59:09.518Z,91.80
2022-11-20T21:01:37.431Z,91.30
2022-11-20T21:06:32.937Z,91.20
2022-11-20T21:13:56.039Z,93.60
2022-11-20T21:18:52.819Z,95.00
2022-11-20T21:24:10.117Z,95.70
2022-11-20T21:34:01.899Z,97.00
2022-11-20T21:39:00.923Z,97.70
2022-11-20T21:41:31.416Z,97.40
2022-11-20T21:46:48.266Z,98.60
2022-11-20T21:49:17.667Z,98.80
2022-11-20T21:54:12.953Z,99.90
2022-11-20T22:06:33.934Z,95.80
2022-11-20T22:21:40.854Z,97.50
2022-11-20T22:24:12.763Z,98.30
2022-11-20T22:31:36.777Z,98.10
2022-11-20T22:34:04.059Z,98.40
2022-11-20T22:39:02.434Z,99.50
2022-11-20T22:41:30.472Z,99.90
2022-11-20T22:44:02.373Z,99.90
2022-11-20T22:46:32.573Z,99.90
2022-11-20T22:49:01.001Z,99.90
2022-11-20T22:51:36.891Z,99.90
2022-11-20T22:54:04.341Z,99.90
2022-11-20T22:56:32.165Z,99.90
2022-11-20T23:01:30.293Z,99.90
2022-11-20T23:03:59.878Z,99.90
2022-11-20T23:06:27.907Z,99.90
2022-11-20T23:08:55.863Z,99.90
2022-11-20T23:11:31.537Z,99.90
2022-11-20T23:16:30.129Z,99.90
2022-11-20T23:18:59.643Z,99.90
2022-11-20T23:21:28.986Z,99.90
2022-11-20T23:23:58.732Z,99.90
2022-11-20T23:26:29.253Z,99.90
2022-11-20T23:28:58.667Z,99.90
2022-11-20T23:36:22.522Z,99.90
2022-11-20T23:43:45.375Z,99.90
2022-11-20T23:46:16.516Z,99.90
2022-11-20T23:48:45.466Z,99.90
2022-11-20T23:53:41.009Z,99.90
2022-11-20T23:56:08.707Z,99.90
2022-11-20T23:58:37.739Z,99.90
